Time;durP1;ratioP1;P1;durP2;ratioP2;P2;SDS_P1;SDS_P2;PMS_P1;PMS_P2;Temp;Humidity;BMP_temperature;BMP_pressure;BME280_temperature;BME280_humidity;BME280_pressure;Samples;Min_cycle;Max_cycle;Signal;HPM_P1;HPM_P2
2022/04/26 03:36:34;;;;;;;3.80;3.60;;;19.00;45.10;;;;;;5035973;28;20456;-56
2022/04/26 03:39:00;;;;;;;3.50;3.30;;;19.00;44.30;;;;;;5036798;28;20981;-55
2022/04/26 03:41:25;;;;;;;3.90;3.70;;;19.00;44.30;;;;;;5039168;28;20748;-60
2022/04/26 03:43:51;;;;;;;4.00;3.70;;;19.00;44.30;;;;;;5037198;28;20730;-57
2022/04/26 03:46:16;;;;;;;4.23;3.93;;;19.00;44.30;;;;;;5041534;28;20218;-56
2022/04/26 03:48:42;;;;;;;3.80;3.60;;;19.00;44.30;;;;;;5039064;28;20238;-58
2022/04/26 03:51:08;;;;;;;3.87;3.67;;;19.00;44.30;;;;;;5035855;28;20219;-58
2022/04/26 03:53:34;;;;;;;4.87;4.57;;;19.00;44.30;;;;;;5038023;28;20231;-56
2022/04/26 03:55:59;;;;;;;3.80;3.60;;;19.00;44.30;;;;;;5041903;28;20223;-57
2022/04/26 03:58:26;;;;;;;4.57;4.27;;;19.00;44.30;;;;;;5041790;28;20674;-57
2022/04/26 04:00:52;;;;;;;3.70;3.50;;;19.10;44.40;;;;;;5040285;28;20574;-59
2022/04/26 04:03:18;;;;;;;3.50;3.30;;;19.00;44.30;;;;;;5041361;28;20434;-57
2022/04/26 04:05:44;;;;;;;4.10;3.90;;;19.00;44.20;;;;;;5038238;28;20460;-56
2022/04/26 04:08:09;;;;;;;3.93;3.73;;;19.00;44.20;;;;;;5040936;28;20456;-57
2022/04/26 04:10:35;;;;;;;3.40;3.20;;;19.00;44.30;;;;;;5037494;28;20219;-56
2022/04/26 04:13:01;;;;;;;3.73;3.53;;;19.00;44.30;;;;;;5037708;28;20632;-56
2022/04/26 04:15:26;;;;;;;4.00;3.70;;;19.00;44.30;;;;;;5038824;28;20242;-57
2022/04/26 04:17:53;;;;;;;3.80;3.60;;;19.00;44.30;;;;;;5035220;28;20223;-58
2022/04/26 04:20:19;;;;;;;3.27;3.07;;;19.00;44.20;;;;;;5042781;28;20214;-56
2022/04/26 04:22:48;;;;;;;3.53;3.33;;;19.10;44.20;;;;;;5039127;28;20475;-57
2022/04/26 04:25:15;;;;;;;3.60;3.40;;;19.10;44.00;;;;;;5041773;28;20422;-56
2022/04/26 04:27:42;;;;;;;4.10;3.90;;;19.10;43.90;;;;;;5038480;28;20459;-57
2022/04/26 04:30:08;;;;;;;3.17;2.97;;;19.20;44.00;;;;;;5040217;28;20434;-58
2022/04/26 04:32:34;;;;;;;4.10;3.90;;;19.20;43.90;;;;;;5038599;28;20498;-57
2022/04/26 04:34:59;;;;;;;3.50;3.30;;;19.20;44.00;;;;;;5035695;28;20567;-57
2022/04/26 04:37:25;;;;;;;3.30;3.10;;;19.20;44.00;;;;;;5038015;28;20748;-58
2022/04/26 04:39:51;;;;;;;3.90;3.70;;;19.20;44.00;;;;;;5035917;28;20222;-56
2022/04/26 04:42:16;;;;;;;3.40;3.20;;;19.20;44.00;;;;;;5038769;28;20223;-56
2022/04/26 04:44:42;;;;;;;3.30;3.10;;;19.30;44.10;;;;;;5040147;28;20246;-57
2022/04/26 04:47:08;;;;;;;3.20;3.00;;;19.30;44.10;;;;;;5035910;28;20741;-58
2022/04/26 04:49:33;;;;;;;3.20;3.00;;;19.30;44.00;;;;;;5034918;28;20215;-57
2022/04/26 04:51:59;;;;;;;3.13;2.93;;;19.30;44.10;;;;;;5034529;28;20301;-57
2022/04/26 04:54:24;;;;;;;3.50;3.30;;;19.30;44.10;;;;;;5023335;28;20219;-56
2022/04/26 04:56:50;;;;;;;3.00;2.80;;;19.30;44.10;;;;;;5039032;28;20221;-59
2022/04/26 04:59:16;;;;;;;3.07;2.90;;;19.30;44.00;;;;;;5039604;28;20225;-58
2022/04/26 05:01:42;;;;;;;2.83;2.73;;;19.20;44.00;;;;;;5016768;28;20743;-58
2022/04/26 05:04:08;;;;;;;3.50;3.30;;;19.20;44.00;;;;;;5050200;28;20434;-60
2022/04/26 05:06:34;;;;;;;3.23;3.03;;;19.20;44.00;;;;;;5036124;28;20567;-57
2022/04/26 05:08:59;;;;;;;3.20;3.00;;;19.20;44.00;;;;;;5029696;28;20470;-57
2022/04/26 05:11:25;;;;;;;3.50;3.30;;;19.20;44.00;;;;;;5040350;28;20577;-57
2022/04/26 05:13:51;;;;;;;3.13;2.93;;;19.20;44.00;;;;;;5023396;28;20222;-57
2022/04/26 05:16:16;;;;;;;2.77;2.57;;;19.20;43.90;;;;;;5034485;28;20227;-59
2022/04/26 05:18:42;;;;;;;3.37;3.07;;;19.20;44.00;;;;;;5038979;28;20612;-59
2022/04/26 05:21:14;;;;;;;3.00;2.80;;;19.20;44.00;;;;;;5037870;28;20740;-60
2022/04/26 05:26:25;;;;;;;2.63;2.53;;;19.20;44.00;;;;;;5037233;28;20443;-58
2022/04/26 05:28:50;;;;;;;2.87;2.67;;;19.20;44.00;;;;;;5035860;28;20427;-58
2022/04/26 05:31:16;;;;;;;2.80;2.70;;;19.20;44.00;;;;;;5035755;28;20252;-57
2022/04/26 05:33:42;;;;;;;3.07;2.87;;;19.20;43.90;;;;;;5033851;28;20222;-61
2022/04/26 05:36:07;;;;;;;2.97;2.77;;;19.20;44.00;;;;;;5038786;28;20675;-59
2022/04/26 05:38:34;;;;;;;2.77;2.67;;;19.20;44.00;;;;;;5037740;28;20921;-58
2022/04/26 05:41:00;;;;;;;2.33;2.23;;;19.20;44.00;;;;;;5038790;28;20683;-57
2022/04/26 05:43:25;;;;;;;2.90;2.73;;;19.20;44.00;;;;;;5038129;28;20470;-58
2022/04/26 05:45:51;;;;;;;2.70;2.60;;;19.20;44.00;;;;;;5034857;28;20226;-59
2022/04/26 05:48:17;;;;;;;2.80;2.60;;;19.20;44.00;;;;;;5037528;28;20241;-59
2022/04/26 05:50:42;;;;;;;3.40;2.43;;;19.20;44.00;;;;;;5037469;28;20223;-59
2022/04/26 05:53:08;;;;;;;3.03;2.83;;;19.20;44.00;;;;;;5040041;28;20215;-59
2022/04/26 05:55:34;;;;;;;3.07;2.90;;;19.20;44.00;;;;;;5041126;28;20294;-57
2022/04/26 05:57:59;;;;;;;2.57;2.43;;;19.20;44.00;;;;;;5042552;28;20223;-57
2022/04/26 06:00:25;;;;;;;2.93;2.73;;;19.20;44.00;;;;;;5042042;28;20215;-57
2022/04/26 06:02:50;;;;;;;2.60;2.50;;;19.20;44.70;;;;;;5039669;28;20279;-57
2022/04/26 06:05:16;;;;;;;2.60;2.40;;;19.20;44.00;;;;;;5039180;28;20589;-57
2022/04/26 06:07:42;;;;;;;2.70;2.50;;;19.20;44.00;;;;;;5040249;28;20699;-58
2022/04/26 06:10:08;;;;;;;3.07;2.87;;;19.20;44.00;;;;;;5039299;28;20223;-58
2022/04/26 06:12:34;;;;;;;2.63;2.53;;;19.20;43.90;;;;;;5025766;28;20214;-58
2022/04/26 06:15:00;;;;;;;2.77;2.67;;;19.20;44.00;;;;;;5041384;28;20734;-58
2022/04/26 06:17:27;;;;;;;2.73;2.63;;;19.20;44.00;;;;;;5041738;28;20556;-61
2022/04/26 06:19:52;;;;;;;2.47;2.37;;;19.20;44.00;;;;;;5039302;28;20223;-58
2022/04/26 06:22:18;;;;;;;2.73;2.53;;;19.20;44.00;;;;;;5024716;28;20868;-57
2022/04/26 06:24:44;;;;;;;2.23;2.13;;;19.20;44.00;;;;;;5039959;28;20700;-57
2022/04/26 06:27:10;;;;;;;2.53;2.43;;;19.20;44.80;;;;;;5038193;28;20569;-57
2022/04/26 06:29:35;;;;;;;2.30;2.20;;;19.20;44.00;;;;;;5039341;28;20226;-57
2022/04/26 06:32:02;;;;;;;2.20;2.10;;;19.20;44.00;;;;;;5044847;28;20758;-57
2022/04/26 06:34:28;;;;;;;3.00;2.80;;;19.20;44.00;;;;;;5039586;28;20589;-57
2022/04/26 06:36:54;;;;;;;2.53;2.33;;;19.20;43.90;;;;;;5041245;28;20550;-58
2022/04/26 06:39:19;;;;;;;2.10;2.00;;;19.20;43.90;;;;;;5040372;28;20967;-57
2022/04/26 06:41:46;;;;;;;2.40;2.30;;;19.20;44.00;;;;;;5038616;28;20211;-58
2022/04/26 06:44:11;;;;;;;2.60;2.40;;;19.20;44.00;;;;;;5039044;28;20974;-58
2022/04/26 06:46:37;;;;;;;2.13;2.03;;;19.20;43.90;;;;;;5023273;28;20426;-59
2022/04/26 06:49:05;;;;;;;2.30;2.10;;;19.30;44.10;;;;;;5042518;28;20238;-59
2022/04/26 06:51:34;;;;;;;2.27;2.17;;;19.20;44.00;;;;;;5038455;28;20288;-58
2022/04/26 06:53:59;;;;;;;2.30;2.20;;;19.30;44.00;;;;;;5037713;28;20451;-58
2022/04/26 06:56:25;;;;;;;2.33;2.23;;;19.20;44.00;;;;;;5041155;28;20448;-58
2022/04/26 06:58:50;;;;;;;2.83;2.63;;;19.30;44.10;;;;;;5038002;28;20230;-57
2022/04/26 07:01:16;;;;;;;2.27;2.17;;;19.20;44.00;;;;;;5040384;28;20231;-58
2022/04/26 07:03:41;;;;;;;2.50;2.40;;;19.30;44.10;;;;;;5041724;28;20246;-60
2022/04/26 07:06:07;;;;;;;2.40;2.30;;;19.30;44.10;;;;;;5037667;28;20747;-58
2022/04/26 07:08:33;;;;;;;2.30;2.20;;;19.20;44.00;;;;;;5035380;28;20231;-58
2022/04/26 07:10:58;;;;;;;2.30;2.10;;;19.30;44.10;;;;;;5040429;28;20233;-58
2022/04/26 07:13:24;;;;;;;2.90;2.37;;;19.20;44.00;;;;;;5040073;28;20225;-59
2022/04/26 07:15:49;;;;;;;6.60;2.40;;;19.30;44.10;;;;;;5040075;28;20675;-58
2022/04/26 07:18:15;;;;;;;2.27;2.17;;;19.20;44.00;;;;;;5039983;28;20269;-59
2022/04/26 07:20:44;;;;;;;2.00;1.90;;;19.20;44.00;;;;;;5040950;28;20250;-59
2022/04/26 07:23:10;;;;;;;2.23;2.13;;;19.20;44.00;;;;;;5039903;28;20215;-58
2022/04/26 07:25:35;;;;;;;2.60;2.50;;;19.20;44.00;;;;;;5036720;28;21390;-58
2022/04/26 07:28:01;;;;;;;2.70;2.50;;;19.20;43.90;;;;;;5039288;28;20478;-58
2022/04/26 07:30:34;;;;;;;2.60;2.40;;;19.30;44.10;;;;;;5021510;28;20219;-61
2022/04/26 07:35:49;;;;;;;2.53;2.33;;;19.20;44.00;;;;;;5036173;28;20825;-58
2022/04/26 07:38:14;;;;;;;2.50;2.40;;;19.20;44.00;;;;;;5038376;28;20431;-57
2022/04/26 07:40:41;;;;;;;2.30;2.10;;;19.20;44.00;;;;;;5035620;28;20484;-58
2022/04/26 07:43:06;;;;;;;2.93;2.83;;;19.20;44.00;;;;;;5038832;28;20310;-58
2022/04/26 07:45:35;;;;;;;2.40;2.30;;;19.20;44.00;;;;;;5036910;28;21022;-59
2022/04/26 07:48:01;;;;;;;3.30;3.10;;;19.20;44.00;;;;;;5041930;28;20241;-57
2022/04/26 07:50:28;;;;;;;2.97;2.77;;;19.20;44.00;;;;;;5041288;28;20502;-60
2022/04/26 07:52:54;;;;;;;2.43;2.33;;;19.30;44.50;;;;;;5041057;28;20253;-59
2022/04/26 07:55:19;;;;;;;2.57;2.37;;;19.30;44.10;;;;;;5034497;28;20426;-59
2022/04/26 07:57:45;;;;;;;3.00;2.80;;;19.30;44.10;;;;;;5036334;28;20230;-58
2022/04/26 08:00:11;;;;;;;3.30;3.10;;;19.30;44.10;;;;;;5039199;28;20223;-58
2022/04/26 08:02:36;;;;;;;3.00;2.80;;;19.30;44.10;;;;;;5036283;28;20231;-58
2022/04/26 08:05:02;;;;;;;3.23;2.93;;;19.20;44.00;;;;;;5039271;28;20429;-59
2022/04/26 08:07:31;;;;;;;2.67;2.57;;;19.30;44.10;;;;;;5038954;28;20235;-60
2022/04/26 08:09:57;;;;;;;3.40;3.00;;;19.20;44.00;;;;;;5039128;28;20223;-59
2022/04/26 08:12:23;;;;;;;3.83;3.53;;;19.20;44.00;;;;;;5036917;28;20426;-58
2022/04/26 08:14:49;;;;;;;3.43;3.23;;;19.20;44.00;;;;;;5038338;28;21438;-58
2022/04/26 08:17:15;;;;;;;3.80;3.60;;;19.20;44.00;;;;;;5036959;28;20219;-59
2022/04/26 08:19:41;;;;;;;3.07;2.87;;;19.20;44.00;;;;;;5034975;28;20219;-58
2022/04/26 08:22:07;;;;;;;3.30;3.10;;;19.30;44.10;;;;;;5039455;28;20910;-58
2022/04/26 08:27:25;;;;;;;3.60;3.40;;;19.20;44.00;;;;;;5033692;28;20246;-58
2022/04/26 08:29:54;;;;;;;3.80;3.60;;;19.30;44.10;;;;;;5036671;28;20423;-58
2022/04/26 08:32:21;;;;;;;4.17;3.97;;;19.20;44.00;;;;;;5027987;28;20865;-58
2022/04/26 08:34:48;;;;;;;3.77;3.57;;;19.20;44.00;;;;;;5037916;28;20455;-58
2022/04/26 08:37:13;;;;;;;3.23;3.00;;;19.20;44.00;;;;;;5039146;28;20426;-58
2022/04/26 08:39:39;;;;;;;3.80;3.60;;;19.20;44.00;;;;;;5036271;28;20422;-59
2022/04/26 08:42:06;;;;;;;3.90;3.53;;;19.30;44.10;;;;;;5036259;28;20215;-58
2022/04/26 08:44:32;;;;;;;4.10;3.80;;;19.20;44.00;;;;;;5039196;28;20228;-58
2022/04/26 08:52:29;;;;;;;3.57;3.37;;;19.20;44.00;;;;;;5039817;28;20537;-58
2022/04/26 08:54:55;;;;;;;4.50;4.20;;;19.20;43.90;;;;;;5034756;28;20476;-59
2022/04/26 08:57:20;;;;;;;3.83;3.57;;;19.20;43.90;;;;;;5040334;28;20875;-59
2022/04/26 08:59:50;;;;;;;4.40;4.10;;;19.30;44.10;;;;;;5036228;28;20223;-58
2022/04/26 09:02:22;;;;;;;4.10;3.80;;;19.20;44.00;;;;;;5033377;28;20594;-58
2022/04/26 09:04:52;;;;;;;4.10;3.80;;;19.30;44.10;;;;;;5040301;28;20952;-58
2022/04/26 09:07:31;;;;;;;4.70;4.40;;;19.30;44.10;;;;;;5035419;28;20439;-58
2022/04/26 09:10:15;;;;;;;4.20;4.00;;;19.20;44.00;;;;;;5035639;28;20858;-58
2022/04/26 09:13:15;;;;;;;4.03;3.83;;;19.20;43.90;;;;;;5038181;28;20463;-59
2022/04/26 09:15:50;;;;;;;4.27;3.97;;;19.20;44.00;;;;;;5035982;28;20431;-59
2022/04/26 09:18:22;;;;;;;4.13;3.93;;;19.20;44.00;;;;;;5038347;28;20458;-58
2022/04/26 09:20:56;;;;;;;4.43;4.13;;;19.20;44.00;;;;;;5021546;28;20455;-57
2022/04/26 09:23:27;;;;;;;4.57;4.37;;;19.20;43.90;;;;;;5034212;28;20447;-60
2022/04/26 09:25:58;;;;;;;4.30;4.00;;;19.20;44.00;;;;;;5043552;28;20456;-60
2022/04/26 09:28:29;;;;;;;4.50;4.27;;;19.20;44.00;;;;;;5041190;28;20463;-58
2022/04/26 09:30:56;;;;;;;4.73;4.43;;;19.20;44.00;;;;;;5038535;28;20419;-58
2022/04/26 09:33:40;;;;;;;4.43;4.23;;;19.20;44.00;;;;;;5041297;28;20493;-59
2022/04/26 09:36:11;;;;;;;4.60;4.40;;;19.20;44.00;;;;;;5039272;28;20463;-58
2022/04/26 09:38:38;;;;;;;5.37;4.97;;;19.20;43.90;;;;;;5038339;28;20422;-59
2022/04/26 09:41:11;;;;;;;4.53;4.23;;;19.20;44.00;;;;;;5040531;28;20438;-58
2022/04/26 09:43:38;;;;;;;5.00;4.40;;;19.20;44.00;;;;;;5039439;28;20461;-60
2022/04/26 09:46:04;;;;;;;5.00;4.70;;;19.20;44.00;;;;;;5037527;28;20448;-59
2022/04/26 09:48:33;;;;;;;4.40;4.20;;;19.20;44.00;;;;;;5041254;28;20534;-58
2022/04/26 09:50:59;;;;;;;5.07;4.80;;;19.20;44.00;;;;;;5042121;28;20837;-58
2022/04/26 09:53:26;;;;;;;4.87;4.47;;;19.20;44.00;;;;;;5041422;28;20467;-57
2022/04/26 09:55:56;;;;;;;5.07;4.77;;;19.20;44.00;;;;;;5039526;28;20223;-58
2022/04/26 09:58:23;;;;;;;5.70;5.20;;;19.20;44.00;;;;;;5031383;28;20455;-58
2022/04/26 10:00:51;;;;;;;5.20;4.90;;;19.20;44.00;;;;;;5036981;28;20406;-57
2022/04/26 10:03:43;;;;;;;4.70;4.50;;;19.20;44.00;;;;;;5027731;28;20923;-60
2022/04/26 10:06:10;;;;;;;5.47;5.13;;;19.20;44.00;;;;;;5034692;28;20442;-57
2022/04/26 10:08:36;;;;;;;4.40;4.10;;;19.20;44.00;;;;;;5044250;28;20463;-57
2022/04/26 10:11:04;;;;;;;5.30;4.90;;;19.20;44.00;;;;;;5038924;28;20530;-58
2022/04/26 10:13:32;;;;;;;4.50;4.30;;;19.20;43.90;;;;;;5041604;28;20352;-59
2022/04/26 10:16:07;;;;;;;4.93;4.63;;;19.20;43.90;;;;;;5036004;28;20978;-58
2022/04/26 10:18:34;;;;;;;5.53;5.17;;;19.20;44.00;;;;;;5041152;28;20462;-58
2022/04/26 10:21:02;;;;;;;5.63;5.33;;;19.20;44.00;;;;;;5037127;28;20447;-58
2022/04/26 10:23:28;;;;;;;5.70;5.30;;;19.20;44.00;;;;;;5045359;28;20444;-59
2022/04/26 10:26:11;;;;;;;5.37;5.07;;;19.20;44.00;;;;;;5039339;28;20443;-57
2022/04/26 10:28:50;;;;;;;5.07;4.70;;;19.20;44.00;;;;;;5039016;28;20482;-59
2022/04/26 10:31:20;;;;;;;5.17;4.87;;;19.20;44.00;;;;;;5039941;28;20423;-59
2022/04/26 10:33:46;;;;;;;5.27;4.97;;;19.20;44.00;;;;;;5043406;28;20517;-57
2022/04/26 10:36:27;;;;;;;5.27;4.97;;;19.20;44.00;;;;;;5037293;28;20518;-59
2022/04/26 10:39:14;;;;;;;4.87;4.57;;;19.20;44.00;;;;;;5032273;28;20452;-58
2022/04/26 10:41:44;;;;;;;5.03;4.63;;;19.20;44.00;;;;;;5041749;28;20780;-58
2022/04/26 10:44:32;;;;;;;5.10;4.80;;;19.20;43.90;;;;;;5043005;28;20448;-58
2022/04/26 10:47:03;;;;;;;5.20;4.80;;;19.20;44.00;;;;;;5046281;28;20440;-58
2022/04/26 10:49:32;;;;;;;5.27;4.97;;;19.20;44.00;;;;;;5038385;28;20427;-58
2022/04/26 10:52:26;;;;;;;5.77;5.47;;;19.10;43.90;;;;;;5040998;28;20431;-58
2022/04/26 10:54:55;;;;;;;7.00;6.50;;;19.10;44.60;;;;;;5021370;28;20455;-59
2022/04/26 10:57:27;;;;;;;5.67;5.37;;;19.20;44.00;;;;;;5041483;28;20415;-58
2022/04/26 10:59:59;;;;;;;6.43;6.13;;;19.10;43.90;;;;;;5033294;28;20439;-58
2022/04/26 11:02:31;;;;;;;5.30;5.00;;;19.10;43.80;;;;;;5039445;28;20437;-58
2022/04/26 11:05:02;;;;;;;6.03;5.63;;;19.10;43.80;;;;;;5040935;28;20423;-57
2022/04/26 11:07:29;;;;;;;6.40;5.90;;;19.20;44.00;;;;;;5044628;28;20959;-59
2022/04/26 11:09:59;;;;;;;7.20;6.70;;;19.10;43.90;;;;;;5042451;28;20509;-57
2022/04/26 11:12:27;;;;;;;6.03;5.73;;;19.10;43.90;;;;;;5041866;28;20459;-58
2022/04/26 11:14:58;;;;;;;6.67;6.20;;;19.10;43.80;;;;;;5035291;28;20917;-58
2022/04/26 11:17:24;;;;;;;6.60;6.20;;;19.10;43.90;;;;;;5036041;28;21006;-58
2022/04/26 11:19:53;;;;;;;6.97;6.07;;;19.10;43.90;;;;;;5039478;28;20493;-57
2022/04/26 11:22:20;;;;;;;5.73;5.33;;;19.10;43.90;;;;;;5041006;28;20459;-58
2022/04/26 11:30:24;;;;;;;6.20;5.80;;;19.10;43.90;;;;;;5039576;28;20545;-58
2022/04/26 11:32:56;;;;;;;6.20;5.90;;;19.10;43.90;;;;;;5038649;28;20419;-58
2022/04/26 11:35:21;;;;;;;6.07;5.77;;;19.10;43.90;;;;;;5037009;28;20457;-57
2022/04/26 11:37:53;;;;;;;6.77;6.37;;;19.10;43.90;;;;;;5015348;28;20428;-58
2022/04/26 11:40:29;;;;;;;6.30;6.00;;;19.10;43.90;;;;;;5053214;28;20215;-58
2022/04/26 11:42:57;;;;;;;5.57;5.27;;;19.10;43.90;;;;;;5038961;28;20839;-58
2022/04/26 11:45:28;;;;;;;6.23;5.83;;;19.10;43.90;;;;;;5035480;28;20434;-58
2022/04/26 11:47:54;;;;;;;6.53;6.10;;;19.10;43.90;;;;;;5035693;28;20557;-58
2022/04/26 11:50:30;;;;;;;6.30;6.00;;;19.10;43.90;;;;;;5038832;28;20430;-57
2022/04/26 11:53:12;;;;;;;6.00;5.50;;;19.10;43.90;;;;;;5034883;28;20848;-59
2022/04/26 11:55:40;;;;;;;6.00;5.70;;;19.10;43.80;;;;;;5035016;28;20449;-58
2022/04/26 11:58:18;;;;;;;6.40;6.00;;;19.10;43.90;;;;;;5041167;28;20445;-58
2022/04/26 12:01:12;;;;;;;6.83;6.40;;;19.20;44.00;;;;;;5037988;28;20451;-58
2022/04/26 12:03:55;;;;;;;5.80;5.50;;;19.10;43.90;;;;;;5037161;28;20926;-57
2022/04/26 12:06:29;;;;;;;6.10;5.80;;;19.10;43.90;;;;;;5037306;28;20448;-57
2022/04/26 12:09:00;;;;;;;6.47;6.07;;;19.10;43.90;;;;;;5036610;28;20455;-59
2022/04/26 12:11:35;;;;;;;6.40;6.00;;;19.10;43.90;;;;;;5035969;28;21155;-59
2022/04/26 12:14:01;;;;;;;6.20;5.90;;;19.10;43.80;;;;;;5037836;28;20421;-57
2022/04/26 12:16:28;;;;;;;5.77;5.47;;;19.10;43.90;;;;;;5040735;28;20454;-58
2022/04/26 12:18:55;;;;;;;5.70;5.40;;;19.10;43.90;;;;;;5037118;28;20481;-57
2022/04/26 12:21:22;;;;;;;5.83;5.50;;;19.10;43.90;;;;;;5037507;28;20440;-59
2022/04/26 12:24:07;;;;;;;5.67;5.37;;;19.10;43.90;;;;;;5042306;28;20454;-58
2022/04/26 12:26:33;;;;;;;5.97;5.57;;;19.10;43.90;;;;;;5037244;28;20471;-57
2022/04/26 12:28:59;;;;;;;6.13;5.80;;;19.10;43.90;;;;;;5035784;28;20457;-58
2022/04/26 12:31:29;;;;;;;5.60;5.30;;;19.10;43.90;;;;;;5040615;28;20215;-59
2022/04/26 12:34:12;;;;;;;5.57;5.27;;;19.10;44.00;;;;;;5036665;28;20440;-58
2022/04/26 12:36:53;;;;;;;5.63;5.33;;;19.10;43.90;;;;;;5039014;28;20429;-58
2022/04/26 12:39:22;;;;;;;5.80;5.50;;;19.10;43.90;;;;;;5038604;28;20475;-58
2022/04/26 12:41:49;;;;;;;6.30;5.90;;;19.10;43.90;;;;;;5038578;28;20419;-58
2022/04/26 12:44:15;;;;;;;6.77;6.43;;;19.10;43.90;;;;;;5035386;28;20423;-59
2022/04/26 12:52:43;;;;;;;6.50;6.10;;;19.10;43.90;;;;;;5034801;28;20472;-58
2022/04/26 12:55:09;;;;;;;5.87;5.57;;;19.10;43.90;;;;;;5038844;28;20418;-58
2022/04/26 12:57:54;;;;;;;6.43;6.03;;;19.10;43.90;;;;;;5038192;28;20433;-59
2022/04/26 13:00:21;;;;;;;6.40;5.90;;;19.10;43.90;;;;;;5036931;28;20235;-58
2022/04/26 13:02:52;;;;;;;5.70;5.30;;;19.10;43.90;;;;;;5035732;28;20465;-59
2022/04/26 13:05:19;;;;;;;6.60;6.17;;;19.10;43.90;;;;;;5040247;28;20455;-58
2022/04/26 13:07:48;;;;;;;5.83;5.53;;;19.10;43.90;;;;;;5032547;28;20946;-58
2022/04/26 13:10:15;;;;;;;5.77;5.43;;;19.10;43.90;;;;;;5035368;28;20440;-58
2022/04/26 13:12:42;;;;;;;6.00;5.60;;;19.10;43.90;;;;;;5033986;28;20449;-58
2022/04/26 13:15:08;;;;;;;6.00;5.60;;;19.10;43.90;;;;;;5042097;28;20434;-58
2022/04/26 13:17:37;;;;;;;5.30;5.00;;;19.10;43.90;;;;;;5036095;28;20444;-58
2022/04/26 13:20:08;;;;;;;5.50;5.20;;;19.10;43.90;;;;;;5040269;28;20448;-59
2022/04/26 13:22:35;;;;;;;6.57;6.17;;;19.10;44.00;;;;;;5035048;28;20429;-58
2022/04/26 13:25:03;;;;;;;5.67;5.37;;;19.10;43.90;;;;;;5033549;28;20999;-58
2022/04/26 13:27:32;;;;;;;5.90;5.50;;;19.10;43.90;;;;;;5034369;28;20451;-58
2022/04/26 13:29:58;;;;;;;4.77;4.57;;;19.10;44.00;;;;;;5038095;28;20431;-58
2022/04/26 13:32:24;;;;;;;5.80;5.50;;;19.10;43.90;;;;;;5038946;28;20498;-58
2022/04/26 13:34:51;;;;;;;6.33;5.80;;;19.10;43.90;;;;;;5039389;28;20414;-58
2022/04/26 13:37:18;;;;;;;5.20;4.90;;;19.10;43.90;;;;;;5037621;28;20735;-59
2022/04/26 13:39:45;;;;;;;5.53;5.13;;;19.10;43.90;;;;;;5035884;28;20431;-58
2022/04/26 13:42:11;;;;;;;5.70;5.40;;;19.10;43.90;;;;;;5038577;28;20855;-58
2022/04/26 13:44:37;;;;;;;5.80;5.40;;;19.10;43.90;;;;;;5032909;28;20426;-58
2022/04/26 13:47:04;;;;;;;5.20;4.90;;;19.10;43.90;;;;;;5035778;28;20411;-58
2022/04/26 13:49:31;;;;;;;5.53;5.23;;;19.10;43.90;;;;;;5036619;28;20235;-58
2022/04/26 13:51:57;;;;;;;5.57;5.17;;;19.10;43.80;;;;;;5040852;28;20434;-59
2022/04/26 13:54:27;;;;;;;5.20;4.90;;;19.10;43.90;;;;;;5035850;28;20419;-58
2022/04/26 13:56:56;;;;;;;5.33;5.03;;;19.10;43.90;;;;;;5038183;28;20297;-59
2022/04/26 13:59:23;;;;;;;6.07;5.57;;;19.10;43.90;;;;;;5038250;28;20573;-59
2022/04/26 14:01:57;;;;;;;6.20;5.90;;;19.10;43.90;;;;;;5035374;28;20500;-58
2022/04/26 14:04:23;;;;;;;5.70;5.40;;;19.10;44.70;;;;;;5035096;28;20406;-58
2022/04/26 14:06:49;;;;;;;3.97;3.77;;;19.10;43.90;;;;;;5036705;28;20457;-59
2022/04/26 14:09:17;;;;;;;5.43;5.13;;;19.10;43.90;;;;;;5042792;28;20244;-58
2022/04/26 14:11:43;;;;;;;5.37;5.00;;;19.10;43.90;;;;;;5042759;28;20234;-57
2022/04/26 14:22:21;;;;;;;5.30;5.00;;;19.10;43.90;;;;;;5040587;28;20831;-58
2022/04/26 14:24:52;;;;;;;5.43;5.13;;;19.10;43.90;;;;;;5037272;28;20547;-60
2022/04/26 14:27:18;;;;;;;5.70;5.40;;;19.10;43.90;;;;;;5044780;28;20218;-57
2022/04/26 14:29:43;;;;;;;5.20;4.90;;;19.10;43.90;;;;;;5041965;28;20803;-56
2022/04/26 14:32:09;;;;;;;5.30;5.00;;;19.10;43.80;;;;;;5038857;28;20582;-58
2022/04/26 14:34:36;;;;;;;5.00;4.80;;;19.10;43.90;;;;;;5039389;28;20218;-58
2022/04/26 14:37:03;;;;;;;5.30;5.10;;;19.10;43.90;;;;;;5035807;28;20276;-57
2022/04/26 14:39:29;;;;;;;4.40;4.20;;;19.10;43.90;;;;;;5038785;28;20943;-57
2022/04/26 14:41:55;;;;;;;4.40;4.20;;;19.10;43.90;;;;;;5037530;28;20430;-57
2022/04/26 14:44:20;;;;;;;4.37;4.17;;;19.10;43.90;;;;;;5036674;28;20963;-57
2022/04/26 14:46:46;;;;;;;4.83;4.53;;;19.10;43.90;;;;;;5039224;28;20963;-57
2022/04/26 14:49:12;;;;;;;5.30;5.00;;;19.10;43.90;;;;;;5042740;28;20245;-59
2022/04/26 14:51:37;;;;;;;5.20;4.90;;;19.10;43.90;;;;;;5044356;28;20215;-56
2022/04/26 14:54:03;;;;;;;5.57;5.17;;;19.10;43.90;;;;;;5041288;28;20714;-56
2022/04/26 14:56:28;;;;;;;5.17;4.80;;;19.10;43.90;;;;;;5040550;28;20715;-56
2022/04/26 14:58:54;;;;;;;4.40;4.20;;;19.10;43.90;;;;;;5041994;28;20350;-56
2022/04/26 15:01:20;;;;;;;4.90;4.70;;;19.10;43.90;;;;;;5041131;28;20234;-56
2022/04/26 15:03:45;;;;;;;4.40;4.13;;;19.10;43.90;;;;;;5040775;28;20264;-57
2022/04/26 15:06:12;;;;;;;5.40;5.10;;;19.10;43.80;;;;;;5033211;28;20292;-57
2022/04/26 15:11:22;;;;;;;4.57;4.27;;;19.10;43.90;;;;;;5044225;28;20447;-58
2022/04/26 15:16:40;;;;;;;3.97;3.77;;;19.10;43.90;;;;;;5009215;28;20625;-56
2022/04/26 15:19:11;;;;;;;4.57;4.37;;;19.10;43.90;;;;;;5039615;28;20900;-58
2022/04/26 15:21:44;;;;;;;4.43;4.23;;;19.10;43.90;;;;;;5036330;28;20227;-59
2022/04/26 15:24:11;;;;;;;4.70;4.50;;;19.10;43.80;;;;;;5043207;28;20930;-57
2022/04/26 15:26:38;;;;;;;4.93;4.73;;;19.10;43.90;;;;;;5035344;28;20530;-57
2022/04/26 15:29:07;;;;;;;4.47;4.07;;;19.10;43.90;;;;;;5039379;28;20470;-57
2022/04/26 15:31:34;;;;;;;4.90;4.60;;;19.10;43.90;;;;;;5022780;28;20958;-57
2022/04/26 15:33:59;;;;;;;4.60;4.40;;;19.10;43.90;;;;;;5040923;28;20431;-56
2022/04/26 15:36:25;;;;;;;4.40;4.20;;;19.10;43.90;;;;;;5043948;28;20429;-56
2022/04/26 15:38:54;;;;;;;4.40;4.20;;;19.10;43.90;;;;;;5037315;28;20226;-57
2022/04/26 15:41:23;;;;;;;4.80;4.50;;;19.10;43.90;;;;;;5038467;28;20285;-58
2022/04/26 15:43:49;;;;;;;4.57;4.27;;;19.10;43.90;;;;;;5035662;28;20463;-57
2022/04/26 15:46:15;;;;;;;4.30;4.10;;;19.10;43.90;;;;;;5042266;28;20501;-56
2022/04/26 15:48:47;;;;;;;4.10;3.90;;;19.10;43.90;;;;;;5043476;28;20838;-57
2022/04/26 15:51:13;;;;;;;4.43;4.03;;;19.00;43.80;;;;;;5040204;28;20218;-58
2022/04/26 15:53:39;;;;;;;5.13;4.83;;;19.00;43.80;;;;;;5039860;28;20453;-57
2022/04/26 15:56:04;;;;;;;4.67;4.40;;;19.10;43.90;;;;;;5035360;28;20211;-57
2022/04/26 15:58:30;;;;;;;4.00;3.80;;;19.10;43.90;;;;;;5039664;28;20317;-57
2022/04/26 16:00:57;;;;;;;4.70;4.40;;;19.10;43.90;;;;;;5042463;28;20679;-57
2022/04/26 16:03:23;;;;;;;4.20;4.00;;;19.00;43.80;;;;;;5037805;28;20219;-57
2022/04/26 16:05:48;;;;;;;4.53;4.33;;;19.00;43.80;;;;;;5040566;28;20522;-58
2022/04/26 16:08:14;;;;;;;4.57;4.27;;;19.00;43.80;;;;;;5027548;28;20271;-57
2022/04/26 16:21:37;;;;;;;3.87;3.67;;;19.10;43.90;;;;;;5038904;28;20467;-58
2022/04/26 16:24:04;;;;;;;4.40;4.03;;;19.10;43.90;;;;;;5041286;28;20453;-57
2022/04/26 16:26:32;;;;;;;4.10;3.90;;;19.10;43.90;;;;;;5041436;28;20227;-60
2022/04/26 16:28:57;;;;;;;3.80;3.60;;;19.10;43.90;;;;;;5037210;28;20518;-58
2022/04/26 16:31:30;;;;;;;3.87;3.67;;;19.10;43.90;;;;;;5037479;28;20852;-58
2022/04/26 16:34:00;;;;;;;3.80;3.60;;;19.10;43.90;;;;;;5038825;28;20721;-58
2022/04/26 16:36:28;;;;;;;3.80;3.60;;;19.10;43.90;;;;;;5038977;28;21022;-58
2022/04/26 16:38:54;;;;;;;5.03;4.17;;;19.10;43.90;;;;;;5038190;28;20455;-57
2022/04/26 16:41:21;;;;;;;4.47;4.27;;;19.10;44.60;;;;;;5040021;28;20535;-57
2022/04/26 16:43:48;;;;;;;4.10;3.90;;;19.10;43.90;;;;;;5040285;28;20946;-59
2022/04/26 16:46:19;;;;;;;4.17;3.97;;;19.10;43.90;;;;;;5039370;28;20974;-57
2022/04/26 16:48:47;;;;;;;3.70;3.50;;;19.10;43.90;;;;;;5039198;28;20469;-58
2022/04/26 16:51:14;;;;;;;4.30;4.10;;;19.10;43.90;;;;;;5036047;28;20448;-59
2022/04/26 16:53:40;;;;;;;4.53;4.27;;;19.10;43.90;;;;;;5039963;28;20815;-57
2022/04/26 16:56:06;;;;;;;3.77;3.57;;;19.10;43.90;;;;;;5039584;28;20792;-58
2022/04/26 16:58:32;;;;;;;3.83;3.63;;;19.10;43.90;;;;;;5035469;28;20468;-61
2022/04/26 17:00:57;;;;;;;3.73;3.53;;;19.10;43.90;;;;;;5035943;28;20676;-59
2022/04/26 17:03:23;;;;;;;3.73;3.53;;;19.10;43.90;;;;;;5036612;28;20678;-57
2022/04/26 17:05:49;;;;;;;4.10;3.83;;;19.10;43.90;;;;;;5040635;28;20267;-58
2022/04/26 17:08:17;;;;;;;4.20;4.00;;;19.10;43.90;;;;;;5037731;28;20487;-59
2022/04/26 17:10:43;;;;;;;4.67;4.20;;;19.10;43.90;;;;;;5036485;28;20223;-58
2022/04/26 17:13:09;;;;;;;3.73;3.53;;;19.10;43.90;;;;;;5039458;28;20472;-58
2022/04/26 17:15:36;;;;;;;3.67;3.47;;;19.10;43.90;;;;;;5039255;28;20487;-57
2022/04/26 17:18:02;;;;;;;4.20;3.90;;;19.10;43.90;;;;;;5033526;28;20239;-58